CDT,Max TemperatureF,Mean TemperatureF,Min TemperatureF,Max Dew PointF,MeanDew PointF,Min DewpointF,Max Humidity, Mean Humidity, Min Humidity, Max Sea Level PressureIn, Mean Sea Level PressureIn, Min Sea Level PressureIn, Max VisibilityMiles, Mean VisibilityMiles, Min VisibilityMiles, Max Wind SpeedMPH, Mean Wind SpeedMPH, Max Gust SpeedMPH,PrecipitationIn, CloudCover, Events, WindDirDegrees
2012-10-1,73,65,55,55,52,46,89,65,40,29.83,29.79,29.75,10,10,10,17,7,18,0.00,0,,352
2012-10-2,73,62,51,50,48,47,92,67,41,29.94,29.89,29.83,10,10,10,13,5,18,0.00,0,,316
2012-10-3,75,62,48,54,50,46,96,71,40,30.03,29.98,29.94,10,10,4,10,3,17,0.00,1,,190
2012-10-4,81,66,52,61,56,51,100,70,42,30.17,30.11,30.04,10,10,7,13,6,,0.00,2,,198
2012-10-5,63,52,39,57,47,38,100,93,77,30.24,30.14,30.09,10,7,2,20,12,30,0.09,7,Rain,20
2012-10-6,48,42,37,39,37,35,96,87,66,30.32,30.27,30.24,10,10,7,10,7,,0.07,6,Rain,26
2012-10-7,52,42,33,38,34,30,96,70,46,30.32,30.27,30.21,10,10,10,9,4,,0.00,3,,335
2012-10-8,59,44,30,40,35,30,100,84,42,30.24,30.18,30.08,10,6,0,13,3,17,0.00,1,Fog,188
2012-10-9,63,50,37,55,48,37,100,82,60,30.07,30.00,29.91,10,9,5,15,6,24,0.00,4,,197
2012-10-10,66,54,43,54,41,32,100,63,30,30.28,30.18,30.08,10,10,7,14,8,23,0.00,3,,53
2012-10-11,70,62,55,62,53,42,90,72,56,30.18,30.13,30.06,10,10,10,12,6,,0.00,7,Rain,173
2012-10-12,68,62,59,65,62,58,100,95,81,30.28,30.19,30.09,10,7,2,14,6,21,1.17,6,Rain-Thunderstorm,130
2012-10-13,75,65,57,66,62,57,100,94,71,30.09,29.97,29.77,10,4,0,21,8,39,0.12,6,Fog-Rain-Thunderstorm,164
2012-10-14,71,62,53,63,55,46,100,80,44,30.06,29.87,29.70,10,10,10,15,13,23,0.00,4,Rain-Thunderstorm,243
2012-10-15,77,62,46,51,48,45,97,66,36,30.06,29.99,29.92,10,10,8,10,4,,0.00,0,,219
2012-10-16,75,64,53,49,46,39,77,53,29,29.91,29.77,29.64,10,10,10,23,9,29,0.00,1,,190
2012-10-17,72,62,51,63,55,39,90,78,62,29.74,29.57,29.48,10,9,2,18,12,30,0.00,5,,210
2012-10-18,63,54,44,39,30,24,74,43,23,29.86,29.80,29.77,10,8,2,23,11,34,0.00,1,,271
2012-10-19,61,52,42,40,34,27,85,51,34,29.88,29.81,29.75,10,10,5,17,11,26,0.00,2,,285
2012-10-20,75,56,37,52,44,37,97,67,35,29.89,29.84,29.76,10,10,10,15,4,21,0.00,0,,181
2012-10-21,77,67,57,67,61,49,90,79,69,29.87,29.84,29.80,10,10,10,23,10,30,0.00,4,,172
2012-10-22,75,72,68,67,66,64,94,83,71,29.96,29.90,29.85,10,10,8,20,14,28,0.03,4,Thunderstorm,184
2012-10-23,73,68,64,65,64,62,90,80,73,29.96,29.89,29.85,10,10,10,21,13,28,0.01,5,,187
2012-10-24,80,71,63,64,62,61,97,77,60,29.95,29.89,29.79,10,10,10,22,12,28,0.00,1,,177
2012-10-25,71,58,44,66,53,37,100,86,73,30.17,29.94,29.77,10,9,2,22,15,31,0.17,6,,260
2012-10-26,48,42,36,36,32,30,79,68,53,30.35,30.30,30.19,10,10,10,20,15,26,0.00,4,,11
2012-10-27,52,40,30,32,29,28,92,72,43,30.35,30.28,30.21,10,10,9,12,7,,0.00,0,,7
2012-10-28,54,40,28,33,29,26,92,70,38,30.32,30.27,30.22,10,10,6,8,4,,0.00,0,,359
2012-10-29,59,44,32,34,30,27,89,63,31,30.34,30.23,30.13,10,10,9,5,2,,0.00,2,,75
2012-10-30,63,48,34,40,36,31,92,65,39,30.12,30.01,29.93,10,10,2,9,2,,0.00,3,,84
2012-10-31,68,52,39,39,37,32,85,60,32,30.05,30.00,29.94,10,10,8,6,3,,0.00,0,,355